createdAt,value
2019-05-30T00:00:17.654Z,8.40
2019-05-30T00:02:42.242Z,8.40
2019-05-30T00:05:10.846Z,8.40
2019-05-30T00:07:39.290Z,8.50
2019-05-30T00:10:07.831Z,8.60
2019-05-30T00:12:36.307Z,8.60
2019-05-30T00:15:07.844Z,8.60
2019-05-30T00:17:36.384Z,8.60
2019-05-30T00:20:06.497Z,8.50
2019-05-30T00:22:34.983Z,8.40
2019-05-30T00:25:06.271Z,8.30
2019-05-30T00:27:34.927Z,8.20
2019-05-30T00:30:03.986Z,8.20
2019-05-30T00:32:32.513Z,8.20
2019-05-30T00:35:02.063Z,8.20
2019-05-30T00:37:30.701Z,8.20
2019-05-30T00:39:59.890Z,8.30
2019-05-30T00:42:28.467Z,8.20
2019-05-30T00:44:57.868Z,8.30
2019-05-30T00:47:26.422Z,8.30
2019-05-30T00:49:56.129Z,8.20
2019-05-30T00:52:24.724Z,8.10
2019-05-30T00:54:53.176Z,8.00
2019-05-30T00:57:21.645Z,8.00
2019-05-30T00:59:50.099Z,8.00
2019-05-30T01:02:18.567Z,8.10
2019-05-30T01:04:46.999Z,8.00
2019-05-30T01:07:15.447Z,8.00
2019-05-30T01:09:43.916Z,7.90
2019-05-30T01:12:12.431Z,8.00
2019-05-30T01:14:40.874Z,8.00
2019-05-30T01:17:09.352Z,8.10
2019-05-30T01:19:37.873Z,8.10
2019-05-30T01:22:07.614Z,8.10
2019-05-30T01:24:36.342Z,8.10
2019-05-30T01:27:05.558Z,8.00
2019-05-30T01:29:34.246Z,8.00
2019-05-30T01:32:05.546Z,8.10
2019-05-30T01:34:34.126Z,8.10
2019-05-30T01:37:03.693Z,8.10
2019-05-30T01:39:32.392Z,8.20
2019-05-30T01:42:01.840Z,8.10
2019-05-30T01:44:30.450Z,8.00
2019-05-30T01:47:00.089Z,8.00
2019-05-30T01:49:28.721Z,8.10
2019-05-30T01:51:58.313Z,8.10
2019-05-30T01:54:26.885Z,8.20
2019-05-30T01:56:58.505Z,8.20
2019-05-30T01:59:27.033Z,8.30
2019-05-30T02:01:55.553Z,8.30
2019-05-30T02:04:23.998Z,8.40
2019-05-30T02:06:52.446Z,8.50
2019-05-30T02:09:20.888Z,8.50
2019-05-30T02:11:49.341Z,8.50
2019-05-30T02:14:17.855Z,8.40
2019-05-30T02:16:46.283Z,8.40
2019-05-30T02:19:14.808Z,8.50
2019-05-30T02:21:43.264Z,8.50
2019-05-30T02:24:12.282Z,8.60
2019-05-30T02:26:40.962Z,8.70
2019-05-30T02:29:10.452Z,8.70
2019-05-30T02:31:39.913Z,8.80
2019-05-30T02:34:10.125Z,8.80
2019-05-30T02:36:38.713Z,8.80
2019-05-30T02:39:09.974Z,8.70
2019-05-30T02:41:38.342Z,8.70
2019-05-30T02:44:07.714Z,8.70
2019-05-30T02:46:36.986Z,8.70
2019-05-30T02:49:07.244Z,8.90
2019-05-30T02:51:35.621Z,8.90
2019-05-30T02:54:06.499Z,9.00
2019-05-30T02:56:34.329Z,9.10
2019-05-30T02:59:03.932Z,9.10
2019-05-30T03:01:33.084Z,9.20
2019-05-30T03:04:02.308Z,9.20
2019-05-30T03:06:32.220Z,9.30
2019-05-30T03:09:01.880Z,9.40
2019-05-30T03:11:31.102Z,9.40
2019-05-30T03:13:59.618Z,9.40
2019-05-30T03:16:28.123Z,9.50
2019-05-30T03:18:56.657Z,9.50
2019-05-30T03:21:25.147Z,9.50
2019-05-30T03:23:53.820Z,9.60
2019-05-30T03:26:22.285Z,9.60
2019-05-30T03:28:53.545Z,9.60
2019-05-30T03:31:29.192Z,9.70
2019-05-30T03:33:53.919Z,9.80
2019-05-30T03:36:29.561Z,9.80
2019-05-30T03:38:52.611Z,9.90
2019-05-30T03:41:21.131Z,10.00
2019-05-30T03:43:49.580Z,10.10
2019-05-30T03:46:21.111Z,10.20
2019-05-30T03:48:52.610Z,10.30
2019-05-30T03:51:21.809Z,10.30
2019-05-30T03:53:50.468Z,10.40
2019-05-30T03:56:22.000Z,10.50
2019-05-30T03:58:56.340Z,10.70
2019-05-30T04:02:03.119Z,10.70
2019-05-30T04:04:46.701Z,10.80
2019-05-30T04:07:19.557Z,11.00
2019-05-30T04:09:51.376Z,11.10
2019-05-30T04:12:37.488Z,11.20
2019-05-30T04:15:23.853Z,11.50
2019-05-30T04:17:52.310Z,12.10
2019-05-30T04:20:23.061Z,13.00
2019-05-30T04:22:50.905Z,13.20
2019-05-30T04:25:19.364Z,13.50
2019-05-30T04:27:47.902Z,13.40
2019-05-30T04:30:18.069Z,13.40
2019-05-30T04:32:46.657Z,13.40
2019-05-30T04:35:16.868Z,13.60
2019-05-30T04:37:45.441Z,13.80
2019-05-30T04:40:15.484Z,13.80
2019-05-30T04:42:44.186Z,13.70
2019-05-30T04:45:13.661Z,13.70
2019-05-30T04:47:42.309Z,13.50
2019-05-30T04:50:12.210Z,13.30
2019-05-30T04:52:40.808Z,13.10
2019-05-30T04:55:10.724Z,12.90
2019-05-30T04:57:39.980Z,13.00
2019-05-30T05:00:10.647Z,12.80
2019-05-30T05:02:39.300Z,12.80
2019-05-30T05:05:08.452Z,12.80
2019-05-30T05:07:36.986Z,12.80
2019-05-30T05:10:09.594Z,12.70
2019-05-30T05:12:38.126Z,12.60
2019-05-30T05:15:07.050Z,12.60
2019-05-30T05:17:35.512Z,12.60
2019-05-30T05:20:06.594Z,12.60
2019-05-30T05:22:35.020Z,12.60
2019-05-30T05:25:04.624Z,12.40
2019-05-30T05:27:33.122Z,12.40
2019-05-30T05:30:01.587Z,12.40
2019-05-30T05:32:30.008Z,12.50
2019-05-30T05:34:58.466Z,12.50
2019-05-30T05:37:27.386Z,12.60
2019-05-30T05:39:55.942Z,12.70
2019-05-30T05:42:28.403Z,12.90
2019-05-30T05:44:54.693Z,13.00
2019-05-30T05:47:23.202Z,13.20
2019-05-30T05:49:51.663Z,13.30
2019-05-30T05:52:20.724Z,13.40
2019-05-30T05:54:49.380Z,13.60
2019-05-30T05:57:18.858Z,13.80
2019-05-30T05:59:47.435Z,14.10
2019-05-30T06:02:17.488Z,14.20
2019-05-30T06:04:46.244Z,14.30
2019-05-30T06:07:14.680Z,14.40
2019-05-30T06:09:43.140Z,14.30
2019-05-30T06:12:11.611Z,14.20
2019-05-30T06:14:40.088Z,14.20
2019-05-30T06:17:08.530Z,14.20
2019-05-30T06:19:45.757Z,14.30
2019-05-30T06:22:07.176Z,14.40
2019-05-30T06:24:35.693Z,14.60
2019-05-30T06:27:04.274Z,14.70
2019-05-30T06:29:32.726Z,15.00
2019-05-30T06:32:01.157Z,15.00
2019-05-30T06:34:38.824Z,15.00
2019-05-30T06:36:59.755Z,15.10
2019-05-30T06:39:29.548Z,15.40
2019-05-30T06:41:58.144Z,15.30
2019-05-30T06:44:26.601Z,15.10
2019-05-30T06:46:55.133Z,15.00
2019-05-30T06:49:24.732Z,15.00
2019-05-30T06:51:53.393Z,15.20
2019-05-30T06:54:23.945Z,15.50
2019-05-30T06:56:52.225Z,15.80
2019-05-30T06:59:21.427Z,15.90
2019-05-30T07:01:52.047Z,16.10
2019-05-30T07:04:20.650Z,16.40
2019-05-30T07:06:49.668Z,16.60
2019-05-30T07:09:18.408Z,16.80
2019-05-30T07:11:46.949Z,16.90
2019-05-30T07:14:15.564Z,16.70
2019-05-30T07:16:44.080Z,16.90
2019-05-30T07:19:12.542Z,17.20
2019-05-30T07:21:41.076Z,17.60
2019-05-30T07:24:09.553Z,17.90
2019-05-30T07:26:38.090Z,17.90
2019-05-30T07:29:06.528Z,17.70
2019-05-30T07:31:34.994Z,17.60
2019-05-30T07:34:03.576Z,17.40
2019-05-30T07:36:32.306Z,17.60
2019-05-30T07:39:00.849Z,17.70
2019-05-30T07:41:29.299Z,18.20
2019-05-30T07:43:57.809Z,18.30
2019-05-30T07:46:26.792Z,18.70
2019-05-30T07:48:55.385Z,18.50
2019-05-30T07:51:24.612Z,18.30
2019-05-30T07:53:53.187Z,18.20
2019-05-30T07:56:21.651Z,17.90
2019-05-30T07:58:50.434Z,17.80
2019-05-30T08:01:18.932Z,17.70
2019-05-30T08:03:47.466Z,17.90
2019-05-30T08:06:16.023Z,18.40
2019-05-30T08:08:44.468Z,18.60
2019-05-30T08:11:12.909Z,18.70
2019-05-30T08:13:41.360Z,18.40
2019-05-30T08:16:09.873Z,18.40
2019-05-30T08:18:38.317Z,18.40
2019-05-30T08:21:06.939Z,18.60
2019-05-30T08:23:36.298Z,18.60
2019-05-30T08:26:04.897Z,18.70
2019-05-30T08:28:34.324Z,18.60
2019-05-30T08:31:02.844Z,18.30
2019-05-30T08:33:31.464Z,18.20
2019-05-30T08:35:59.991Z,18.00
2019-05-30T08:38:29.007Z,17.90
2019-05-30T08:40:57.660Z,17.80
2019-05-30T08:43:26.143Z,17.70
2019-05-30T08:45:54.584Z,17.60
2019-05-30T08:48:23.091Z,17.70
2019-05-30T08:50:51.585Z,17.70
2019-05-30T08:53:20.059Z,17.70
2019-05-30T08:55:48.592Z,17.90
2019-05-30T08:58:17.096Z,18.30
2019-05-30T09:00:45.535Z,18.40
2019-05-30T09:03:14.058Z,18.60
2019-05-30T09:05:57.003Z,19.10
2019-05-30T09:08:12.770Z,19.60
2019-05-30T09:10:42.557Z,19.80
2019-05-30T09:13:11.363Z,20.10
2019-05-30T09:15:40.961Z,20.10
2019-05-30T09:18:09.652Z,19.70
2019-05-30T09:20:39.816Z,19.40
2019-05-30T09:23:08.333Z,19.30
2019-05-30T09:25:37.219Z,19.00
2019-05-30T09:28:07.046Z,18.90
2019-05-30T09:30:35.517Z,18.90
2019-05-30T09:33:04.105Z,18.90
2019-05-30T09:35:32.555Z,18.80
2019-05-30T09:38:01.012Z,18.80
2019-05-30T09:40:31.114Z,18.90
2019-05-30T09:42:59.609Z,18.70
2019-05-30T09:45:28.184Z,18.60
2019-05-30T09:47:56.621Z,18.60
2019-05-30T09:50:25.148Z,18.80
2019-05-30T09:52:53.608Z,18.90
2019-05-30T09:55:22.427Z,19.00
2019-05-30T09:57:51.703Z,19.10
2019-05-30T10:00:22.086Z,19.30
2019-05-30T10:02:50.681Z,19.30
2019-05-30T10:05:24.325Z,19.00
2019-05-30T10:07:52.850Z,19.00
2019-05-30T10:10:21.953Z,18.90
2019-05-30T10:12:50.467Z,18.50
2019-05-30T10:15:19.481Z,18.70
2019-05-30T10:17:49.529Z,18.70
2019-05-30T10:20:18.808Z,18.90
2019-05-30T10:22:49.005Z,19.00
2019-05-30T10:25:17.823Z,19.00
2019-05-30T10:27:48.027Z,19.20
2019-05-30T10:30:18.498Z,19.70
2019-05-30T10:32:48.565Z,19.90
2019-05-30T10:35:17.258Z,20.00
2019-05-30T10:37:47.094Z,19.80
2019-05-30T10:40:16.512Z,19.80
2019-05-30T10:42:46.202Z,19.40
2019-05-30T10:45:15.838Z,19.10
2019-05-30T10:47:45.840Z,18.80
2019-05-30T10:50:14.946Z,18.50
2019-05-30T10:52:43.514Z,18.40
2019-05-30T10:55:13.609Z,18.20
2019-05-30T10:57:42.068Z,18.10
2019-05-30T11:00:13.594Z,18.00
2019-05-30T11:02:42.034Z,17.80
2019-05-30T11:05:11.208Z,17.50
2019-05-30T11:08:02.067Z,17.20
2019-05-30T11:10:36.120Z,17.20
2019-05-30T11:13:07.305Z,17.10
2019-05-30T11:15:35.753Z,17.10
2019-05-30T11:18:04.548Z,17.00
2019-05-30T11:20:32.985Z,17.20
2019-05-30T11:23:01.437Z,17.10
2019-05-30T11:25:29.959Z,17.20
2019-05-30T11:27:58.909Z,17.20
2019-05-30T11:30:27.631Z,17.00
2019-05-30T11:32:57.285Z,16.90
2019-05-30T11:35:25.865Z,16.80
2019-05-30T11:37:55.207Z,16.90
2019-05-30T11:40:24.333Z,16.90
2019-05-30T11:42:53.381Z,16.90
2019-05-30T11:45:23.253Z,17.00
2019-05-30T11:47:51.709Z,17.00
2019-05-30T11:50:20.555Z,17.20
2019-05-30T11:52:49.841Z,17.10
2019-05-30T11:55:18.456Z,17.30
2019-05-30T11:57:46.911Z,17.50
2019-05-30T12:00:16.044Z,17.60
2019-05-30T12:02:44.509Z,17.90
2019-05-30T12:05:13.797Z,17.90
2019-05-30T12:07:42.308Z,18.40
2019-05-30T12:10:11.200Z,18.80
2019-05-30T12:12:39.682Z,19.10
2019-05-30T12:15:09.434Z,19.20
2019-05-30T12:17:37.892Z,19.60
2019-05-30T12:20:07.894Z,19.90
2019-05-30T12:22:36.503Z,20.10
2019-05-30T12:25:08.511Z,20.00
2019-05-30T12:27:36.986Z,19.60
2019-05-30T12:30:09.266Z,19.60
2019-05-30T12:32:37.718Z,19.80
2019-05-30T12:35:09.825Z,20.00
2019-05-30T12:37:53.640Z,20.20
2019-05-30T12:40:10.505Z,20.10
2019-05-30T12:42:39.006Z,20.10
2019-05-30T12:45:10.967Z,19.80
2019-05-30T12:47:39.407Z,19.90
2019-05-30T12:50:12.435Z,19.80
2019-05-30T12:52:40.897Z,19.70
2019-05-30T12:55:10.855Z,19.70
2019-05-30T12:57:39.369Z,19.80
2019-05-30T13:00:18.446Z,19.80
2019-05-30T13:02:40.197Z,19.90
2019-05-30T13:05:08.990Z,20.00
2019-05-30T13:07:37.516Z,20.10
2019-05-30T13:10:09.837Z,20.10
2019-05-30T13:12:38.410Z,19.90
2019-05-30T13:15:07.610Z,19.60
2019-05-30T13:17:36.055Z,19.50
2019-05-30T13:20:07.853Z,19.30
2019-05-30T13:22:36.544Z,19.20
2019-05-30T13:25:09.419Z,19.00
2019-05-30T13:27:37.924Z,19.30
2019-05-30T13:30:09.018Z,19.40
2019-05-30T13:32:37.534Z,19.50
2019-05-30T13:35:09.331Z,19.50
2019-05-30T13:37:37.773Z,19.50
2019-05-30T13:40:23.714Z,19.30
2019-05-30T13:42:39.112Z,19.10
2019-05-30T13:45:09.843Z,19.10
2019-05-30T13:47:38.838Z,19.10
2019-05-30T13:50:13.008Z,19.00
2019-05-30T13:52:39.726Z,19.10
2019-05-30T13:55:10.274Z,19.00
2019-05-30T13:57:38.863Z,18.80
2019-05-30T14:00:08.415Z,18.50
2019-05-30T14:02:36.864Z,18.50
2019-05-30T14:05:08.196Z,18.30
2019-05-30T14:07:36.829Z,18.30
2019-05-30T14:10:10.723Z,18.40
2019-05-30T14:12:39.342Z,18.40
2019-05-30T14:15:11.093Z,18.70
2019-05-30T14:17:39.258Z,18.80
2019-05-30T14:20:09.477Z,18.80
2019-05-30T14:22:38.003Z,18.90
2019-05-30T14:25:11.588Z,19.00
2019-05-30T14:27:40.159Z,19.10
2019-05-30T14:30:10.858Z,19.00
2019-05-30T14:32:39.559Z,19.10
2019-05-30T14:35:08.670Z,19.00
2019-05-30T14:37:37.199Z,18.80
2019-05-30T14:40:11.050Z,18.80
2019-05-30T14:42:39.729Z,18.90
2019-05-30T14:45:10.406Z,19.00
2019-05-30T14:47:39.285Z,19.20
2019-05-30T14:50:10.576Z,19.40
2019-05-30T14:52:39.461Z,19.40
2019-05-30T14:55:09.074Z,19.30
2019-05-30T14:57:37.879Z,19.40
2019-05-30T15:00:09.260Z,19.40
2019-05-30T15:02:38.191Z,19.30
2019-05-30T15:05:07.428Z,19.40
2019-05-30T15:07:36.136Z,19.40
2019-05-30T15:10:08.786Z,19.30
2019-05-30T15:12:37.425Z,19.30
2019-05-30T15:15:09.055Z,19.10
2019-05-30T15:17:37.616Z,19.20
2019-05-30T15:20:10.682Z,19.30
2019-05-30T15:22:39.915Z,19.30
2019-05-30T15:25:10.062Z,19.50
2019-05-30T15:27:38.905Z,19.70
2019-05-30T15:30:12.681Z,19.70
2019-05-30T15:32:41.388Z,19.70
2019-05-30T15:35:11.013Z,19.80
2019-05-30T15:37:40.955Z,19.90
2019-05-30T15:40:10.941Z,19.80
2019-05-30T15:42:39.527Z,19.80
2019-05-30T15:45:09.922Z,19.80
2019-05-30T15:47:38.636Z,20.00
2019-05-30T15:50:08.297Z,19.80
2019-05-30T15:52:37.401Z,20.00
2019-05-30T15:55:07.484Z,20.00
2019-05-30T15:57:36.713Z,20.00
2019-05-30T16:00:10.019Z,20.10
2019-05-30T16:02:38.717Z,20.20
2019-05-30T16:05:10.319Z,20.10
2019-05-30T16:07:39.072Z,20.00
2019-05-30T16:10:09.053Z,20.00
2019-05-30T16:12:37.538Z,20.00
2019-05-30T16:15:08.102Z,19.90
2019-05-30T16:17:36.603Z,19.90
2019-05-30T16:20:06.889Z,19.80
2019-05-30T16:22:35.444Z,19.70
2019-05-30T16:25:07.572Z,19.70
2019-05-30T16:27:36.079Z,19.70
2019-05-30T16:30:07.050Z,19.60
2019-05-30T16:32:35.706Z,19.40
2019-05-30T16:35:05.563Z,19.40
2019-05-30T16:37:34.030Z,19.50
2019-05-30T16:40:06.247Z,19.60
2019-05-30T16:42:32.940Z,19.70
2019-05-30T16:45:01.443Z,19.70
2019-05-30T16:47:29.923Z,19.90
2019-05-30T16:49:58.378Z,20.10
2019-05-30T16:52:27.316Z,20.20
2019-05-30T16:54:55.859Z,20.20
2019-05-30T16:57:24.296Z,20.10
2019-05-30T16:59:52.734Z,20.00
2019-05-30T17:02:21.182Z,19.80
2019-05-30T17:04:49.645Z,19.70
2019-05-30T17:07:19.115Z,19.60
2019-05-30T17:09:47.674Z,19.50
2019-05-30T17:12:17.331Z,19.50
2019-05-30T17:14:46.031Z,19.50
2019-05-30T17:17:14.466Z,19.40
2019-05-30T17:19:42.917Z,19.30
2019-05-30T17:22:11.363Z,19.30
2019-05-30T17:24:39.813Z,19.20
2019-05-30T17:27:08.338Z,19.20
2019-05-30T17:29:36.798Z,19.20
2019-05-30T17:32:05.258Z,19.10
2019-05-30T17:34:33.709Z,19.00
2019-05-30T17:37:02.150Z,18.90
2019-05-30T17:39:30.744Z,18.90
2019-05-30T17:41:59.194Z,18.90
2019-05-30T17:44:27.639Z,18.80
2019-05-30T17:46:56.161Z,18.70
2019-05-30T17:49:25.747Z,18.80
2019-05-30T17:51:54.421Z,18.70
2019-05-30T17:54:23.833Z,18.70
2019-05-30T17:56:52.401Z,18.60
2019-05-30T17:59:22.275Z,18.60
2019-05-30T18:01:50.789Z,18.60
2019-05-30T18:04:20.338Z,18.50
2019-05-30T18:06:48.908Z,18.50
2019-05-30T18:09:17.338Z,18.40
2019-05-30T18:11:45.834Z,18.40
2019-05-30T18:14:14.283Z,18.30
2019-05-30T18:16:42.741Z,18.30
2019-05-30T18:19:11.415Z,18.30
2019-05-30T18:21:41.579Z,18.20
2019-05-30T18:24:10.021Z,18.20
2019-05-30T18:26:38.515Z,18.20
2019-05-30T18:29:06.999Z,18.10
2019-05-30T18:31:35.465Z,18.10
2019-05-30T18:34:05.404Z,18.00
2019-05-30T18:36:33.919Z,18.10
2019-05-30T18:39:02.422Z,18.10
2019-05-30T18:41:30.954Z,18.00
2019-05-30T18:43:59.432Z,18.00
2019-05-30T18:46:29.070Z,18.00
2019-05-30T18:48:57.839Z,17.90
2019-05-30T18:51:26.370Z,17.90
2019-05-30T18:53:54.813Z,17.80
2019-05-30T18:56:29.006Z,17.80
2019-05-30T18:58:57.454Z,17.70
2019-05-30T19:01:27.277Z,17.60
2019-05-30T19:03:56.031Z,17.60
2019-05-30T19:06:26.053Z,17.60
2019-05-30T19:08:54.636Z,17.60
2019-05-30T19:11:29.097Z,17.60
2019-05-30T19:13:53.313Z,17.60
2019-05-30T19:16:21.914Z,17.50
2019-05-30T19:18:50.416Z,17.50
2019-05-30T19:21:18.857Z,17.40
2019-05-30T19:23:47.358Z,17.40
2019-05-30T19:26:15.807Z,17.30
2019-05-30T19:28:44.297Z,17.30
2019-05-30T19:31:15.573Z,17.30
2019-05-30T19:33:44.203Z,17.30
2019-05-30T19:36:12.979Z,17.20
2019-05-30T19:38:41.628Z,17.10
2019-05-30T19:41:10.061Z,17.00
2019-05-30T19:43:38.514Z,16.90
2019-05-30T19:46:07.038Z,16.90
2019-05-30T19:48:36.449Z,16.90
2019-05-30T19:51:05.261Z,16.80
2019-05-30T19:53:34.711Z,16.90
2019-05-30T19:56:03.480Z,16.90
2019-05-30T19:58:31.968Z,16.80
2019-05-30T20:01:00.459Z,16.80
2019-05-30T20:03:37.504Z,16.80
2019-05-30T20:05:59.340Z,16.70
2019-05-30T20:08:43.969Z,16.60
2019-05-30T20:10:57.956Z,16.50
2019-05-30T20:13:28.530Z,16.50
2019-05-30T20:15:57.040Z,16.50
2019-05-30T20:18:25.712Z,16.40
2019-05-30T20:20:59.777Z,16.40
2019-05-30T20:23:28.354Z,16.40
2019-05-30T20:25:56.876Z,16.40
2019-05-30T20:28:25.470Z,16.30
2019-05-30T20:30:56.881Z,16.40
2019-05-30T20:33:26.105Z,16.30
2019-05-30T20:35:54.556Z,16.30
2019-05-30T20:38:23.072Z,16.30
2019-05-30T20:40:54.274Z,16.30
2019-05-30T20:43:26.099Z,16.20
2019-05-30T20:45:56.129Z,16.20
2019-05-30T20:48:24.652Z,16.20
2019-05-30T20:50:53.100Z,16.20
2019-05-30T20:53:21.581Z,16.20
2019-05-30T20:55:52.750Z,16.30
2019-05-30T20:58:21.224Z,16.20
2019-05-30T21:00:52.582Z,16.20
2019-05-30T21:03:21.028Z,16.10
2019-05-30T21:05:50.597Z,16.10
2019-05-30T21:08:19.045Z,16.20
2019-05-30T21:10:48.824Z,16.20
2019-05-30T21:13:18.806Z,16.20
2019-05-30T21:15:48.387Z,16.20
2019-05-30T21:18:20.858Z,16.10
2019-05-30T21:20:49.484Z,16.10
2019-05-30T21:23:18.196Z,16.00
2019-05-30T21:25:47.320Z,16.00
2019-05-30T21:28:16.130Z,15.90
2019-05-30T21:30:45.398Z,15.90
2019-05-30T21:33:13.975Z,15.90
2019-05-30T21:35:48.626Z,15.80
2019-05-30T21:38:17.522Z,15.80
2019-05-30T21:40:46.532Z,15.70
2019-05-30T21:43:16.643Z,15.60
2019-05-30T21:45:51.210Z,15.50
2019-05-30T21:48:19.670Z,15.40
2019-05-30T21:50:49.108Z,15.40
2019-05-30T21:53:18.319Z,15.30
2019-05-30T21:55:47.950Z,15.20
2019-05-30T21:58:16.647Z,15.30
2019-05-30T22:00:51.149Z,15.30
2019-05-30T22:03:19.683Z,15.30
2019-05-30T22:05:48.622Z,15.20
2019-05-30T22:08:18.255Z,15.30
2019-05-30T22:10:47.652Z,15.20
2019-05-30T22:13:16.246Z,15.20
2019-05-30T22:15:45.988Z,15.20
2019-05-30T22:18:14.916Z,15.20
2019-05-30T22:20:43.837Z,15.20
2019-05-30T22:23:14.097Z,15.10
2019-05-30T22:25:42.576Z,15.10
2019-05-30T22:28:11.046Z,15.10
2019-05-30T22:30:39.503Z,15.00
2019-05-30T22:33:07.978Z,15.10
2019-05-30T22:35:36.441Z,15.20
2019-05-30T22:38:04.881Z,15.10
2019-05-30T22:40:33.351Z,15.10
2019-05-30T22:43:01.810Z,15.10
2019-05-30T22:45:30.309Z,15.10
2019-05-30T22:47:58.817Z,15.10
2019-05-30T22:50:27.272Z,15.00
2019-05-30T22:52:55.722Z,15.00
2019-05-30T22:55:24.248Z,15.00
2019-05-30T22:57:52.724Z,15.10
2019-05-30T23:00:22.862Z,15.00
2019-05-30T23:02:51.936Z,15.00
2019-05-30T23:05:20.528Z,15.00
2019-05-30T23:07:49.808Z,14.90
2019-05-30T23:10:18.315Z,14.90
2019-05-30T23:12:47.718Z,14.90
2019-05-30T23:15:16.377Z,14.80
2019-05-30T23:17:46.051Z,14.80
2019-05-30T23:20:14.956Z,14.70
2019-05-30T23:22:43.417Z,14.70
2019-05-30T23:25:12.090Z,14.80
2019-05-30T23:27:40.562Z,14.80
2019-05-30T23:30:09.164Z,14.90
2019-05-30T23:32:37.608Z,15.00
2019-05-30T23:35:06.762Z,15.10
2019-05-30T23:37:35.219Z,15.10
2019-05-30T23:40:04.724Z,15.20
2019-05-30T23:42:33.170Z,15.30
2019-05-30T23:45:01.639Z,15.30
2019-05-30T23:47:30.140Z,15.30
2019-05-30T23:49:58.751Z,15.30
2019-05-30T23:52:27.218Z,15.40
2019-05-30T23:54:56.265Z,15.40
2019-05-30T23:57:24.994Z,15.40
2019-05-30T23:59:54.646Z,15.40
